createdAt,value
2023-02-19T00:01:53.481Z,99760.25
2023-02-19T00:04:39.946Z,99760.92
2023-02-19T00:07:26.521Z,99762.20
2023-02-19T00:10:13.086Z,99752.77
2023-02-19T00:12:59.517Z,99750.23
2023-02-19T00:15:46.180Z,99739.29
2023-02-19T00:18:32.432Z,99751.80
2023-02-19T00:21:19.227Z,99754.48
2023-02-19T00:24:07.305Z,99751.79
2023-02-19T00:26:53.913Z,99749.20
2023-02-19T00:29:40.070Z,99741.11
2023-02-19T00:32:26.796Z,99742.11
2023-02-19T00:35:13.578Z,99748.78
2023-02-19T00:38:00.269Z,99743.88
2023-02-19T00:40:46.946Z,99734.96
2023-02-19T00:43:35.901Z,99731.98
2023-02-19T00:46:35.397Z,99732.25
2023-02-19T00:49:23.448Z,99733.33
2023-02-19T00:52:10.395Z,99734.05
2023-02-19T00:54:56.658Z,99736.80
2023-02-19T00:57:43.463Z,99731.23
2023-02-19T01:00:30.264Z,99738.61
2023-02-19T01:03:16.795Z,99743.09
2023-02-19T01:06:05.183Z,99742.41
2023-02-19T01:08:52.107Z,99741.16
2023-02-19T01:11:39.063Z,99738.79
2023-02-19T01:14:25.536Z,99734.62
2023-02-19T01:17:12.184Z,99736.30
2023-02-19T01:19:58.613Z,99735.47
2023-02-19T01:22:45.233Z,99731.99
2023-02-19T01:25:31.913Z,99733.08
2023-02-19T01:28:18.848Z,99730.24
2023-02-19T01:31:07.557Z,99727.42
2023-02-19T01:33:59.656Z,99728.38
2023-02-19T01:36:46.255Z,99726.06
2023-02-19T01:39:33.100Z,99726.77
2023-02-19T01:42:19.759Z,99731.58
2023-02-19T01:45:33.899Z,99739.63
2023-02-19T01:48:32.637Z,99735.67
2023-02-19T01:51:21.126Z,99737.11
2023-02-19T01:54:09.693Z,99736.38
2023-02-19T01:56:57.454Z,99735.81
2023-02-19T01:59:44.233Z,99732.16
2023-02-19T02:02:30.802Z,99730.45
2023-02-19T02:05:32.628Z,99727.91
2023-02-19T02:08:38.758Z,99730.18
2023-02-19T02:11:25.421Z,99732.52
2023-02-19T02:14:12.492Z,99735.07
2023-02-19T02:17:09.144Z,99732.73
2023-02-19T02:19:55.463Z,99734.30
2023-02-19T02:23:21.723Z,99735.38
2023-02-19T02:26:52.518Z,99726.14
2023-02-19T02:29:58.434Z,99726.63
2023-02-19T02:33:08.983Z,99734.61
2023-02-19T02:36:03.896Z,99740.81
2023-02-19T02:38:54.064Z,99736.71
2023-02-19T02:41:46.064Z,99741.34
2023-02-19T02:44:37.150Z,99740.48
2023-02-19T02:47:42.173Z,99742.84
2023-02-19T02:50:43.879Z,99735.19
2023-02-19T02:54:00.422Z,99738.45
2023-02-19T02:56:50.032Z,99738.08
2023-02-19T02:59:39.317Z,99738.23
2023-02-19T03:02:30.579Z,99738.64
2023-02-19T03:05:41.680Z,99727.11
2023-02-19T03:08:45.305Z,99728.08
2023-02-19T03:11:52.003Z,99720.73
2023-02-19T03:15:02.787Z,99719.99
2023-02-19T03:18:11.361Z,99721.93
2023-02-19T03:20:59.388Z,99726.50
2023-02-19T03:24:06.596Z,99728.08
2023-02-19T03:26:54.049Z,99733.27
2023-02-19T03:29:43.303Z,99732.39
2023-02-19T03:32:50.234Z,99733.44
2023-02-19T03:35:41.773Z,99738.35
2023-02-19T03:38:37.189Z,99731.90
2023-02-19T03:41:44.376Z,99736.10
2023-02-19T03:44:57.652Z,99728.33
2023-02-19T03:48:23.036Z,99727.27
2023-02-19T03:51:24.813Z,99725.91
2023-02-19T03:54:32.741Z,99716.98
2023-02-19T03:57:25.074Z,99712.12
2023-02-19T04:00:21.467Z,99717.10
2023-02-19T04:03:31.478Z,99707.23
2023-02-19T04:06:29.283Z,99709.61
2023-02-19T04:09:17.388Z,99702.23
2023-02-19T04:12:05.739Z,99707.42
2023-02-19T04:15:00.742Z,99707.52
2023-02-19T04:17:50.272Z,99706.48
2023-02-19T04:20:42.239Z,99708.83
2023-02-19T04:23:33.230Z,99699.80
2023-02-19T04:26:22.796Z,99698.02
2023-02-19T04:29:09.296Z,99695.22
2023-02-19T04:31:56.268Z,99691.67
2023-02-19T04:34:42.600Z,99689.67
2023-02-19T04:37:29.422Z,99686.09
2023-02-19T04:40:16.167Z,99677.42
2023-02-19T04:43:03.732Z,99679.14
2023-02-19T04:45:50.210Z,99682.20
2023-02-19T04:48:38.949Z,99684.61
2023-02-19T04:51:25.586Z,99680.30
2023-02-19T04:54:12.256Z,99682.86
2023-02-19T04:56:58.968Z,99689.17
2023-02-19T04:59:47.079Z,99697.63
2023-02-19T05:02:33.833Z,99692.18
2023-02-19T05:05:20.350Z,99684.77
2023-02-19T05:08:07.170Z,99683.36
2023-02-19T05:10:58.976Z,99682.02
2023-02-19T05:13:45.246Z,99682.39
2023-02-19T05:16:33.150Z,99682.56
2023-02-19T05:19:19.586Z,99683.76
2023-02-19T05:22:06.108Z,99682.64
2023-02-19T05:24:52.713Z,99674.29
2023-02-19T05:27:40.121Z,99672.17
2023-02-19T05:30:26.684Z,99674.50
2023-02-19T05:33:14.415Z,99668.58
2023-02-19T05:36:06.417Z,99674.55
2023-02-19T05:38:57.036Z,99666.05
2023-02-19T05:41:45.666Z,99666.91
2023-02-19T05:44:32.470Z,99664.08
2023-02-19T05:47:19.197Z,99660.72
2023-02-19T05:50:07.401Z,99658.71
2023-02-19T05:52:54.021Z,99657.67
2023-02-19T05:55:40.649Z,99659.70
2023-02-19T05:58:28.018Z,99655.13
2023-02-19T06:01:16.746Z,99665.29
2023-02-19T06:04:03.496Z,99665.70
2023-02-19T06:06:50.473Z,99664.84
2023-02-19T06:09:36.909Z,99662.48
2023-02-19T06:12:24.079Z,99660.48
2023-02-19T06:15:10.489Z,99658.20
2023-02-19T06:17:57.004Z,99662.86
2023-02-19T06:20:43.830Z,99662.14
2023-02-19T06:23:32.808Z,99669.74
2023-02-19T06:26:22.129Z,99674.24
2023-02-19T06:29:08.555Z,99675.92
2023-02-19T06:31:55.498Z,99674.89
2023-02-19T06:34:41.929Z,99676.55
2023-02-19T06:37:29.242Z,99683.88
2023-02-19T06:40:16.295Z,99681.71
2023-02-19T06:43:02.961Z,99680.36
2023-02-19T06:45:49.597Z,99673.27
2023-02-19T06:48:36.346Z,99671.98
2023-02-19T06:51:24.286Z,99669.70
2023-02-19T06:54:10.804Z,99673.60
2023-02-19T06:56:59.173Z,99669.64
2023-02-19T06:59:46.695Z,99672.57
2023-02-19T07:02:33.433Z,99675.93
2023-02-19T07:05:20.950Z,99677.43
2023-02-19T07:08:07.597Z,99687.91
2023-02-19T07:10:56.579Z,99686.52
2023-02-19T07:13:42.835Z,99689.39
2023-02-19T07:16:29.833Z,99695.49
2023-02-19T07:19:16.333Z,99696.63
2023-02-19T07:22:02.952Z,99697.52
2023-02-19T07:24:49.693Z,99694.39
2023-02-19T07:27:36.398Z,99696.71
2023-02-19T07:30:22.913Z,99693.98
2023-02-19T07:33:10.874Z,99694.02
2023-02-19T07:35:57.234Z,99700.02
2023-02-19T07:38:47.207Z,99699.80
2023-02-19T07:41:34.228Z,99702.64
2023-02-19T07:44:20.795Z,99706.30
2023-02-19T07:47:08.277Z,99707.80
2023-02-19T07:49:54.885Z,99708.22
2023-02-19T07:52:41.758Z,99703.08
2023-02-19T07:55:28.378Z,99713.45
2023-02-19T07:58:15.246Z,99709.65
2023-02-19T08:01:11.579Z,99714.97
2023-02-19T08:03:58.714Z,99713.85
2023-02-19T08:06:45.515Z,99712.73
2023-02-19T08:09:32.306Z,99712.97
2023-02-19T08:12:37.570Z,99716.88
2023-02-19T08:15:24.061Z,99726.04
2023-02-19T08:18:14.105Z,99727.54
2023-02-19T08:21:00.890Z,99731.06
2023-02-19T08:23:50.603Z,99730.98
2023-02-19T08:26:37.612Z,99732.84
2023-02-19T08:29:23.993Z,99735.91
2023-02-19T08:32:10.418Z,99737.86
2023-02-19T08:34:57.128Z,99737.90
2023-02-19T08:37:43.930Z,99739.98
2023-02-19T08:40:30.927Z,99745.80
2023-02-19T08:43:17.719Z,99745.06
2023-02-19T08:46:04.673Z,99750.80
2023-02-19T08:48:51.454Z,99743.80
2023-02-19T08:51:37.896Z,99747.73
2023-02-19T08:54:24.795Z,99745.50
2023-02-19T08:57:11.320Z,99749.30
2023-02-19T09:00:01.190Z,99740.98
2023-02-19T09:02:49.031Z,99741.98
2023-02-19T09:05:35.801Z,99742.17
2023-02-19T09:08:22.339Z,99742.17
2023-02-19T09:11:08.928Z,99738.88
2023-02-19T09:13:56.758Z,99739.67
2023-02-19T09:16:53.628Z,99739.45
2023-02-19T09:19:40.267Z,99742.02
2023-02-19T09:22:27.000Z,99747.27
2023-02-19T09:25:13.563Z,99745.55
2023-02-19T09:28:00.290Z,99747.85
2023-02-19T09:30:46.542Z,99752.06
2023-02-19T09:33:33.417Z,99751.77
2023-02-19T09:36:20.107Z,99753.00
2023-02-19T09:39:08.997Z,99752.32
2023-02-19T09:42:04.215Z,99749.30
2023-02-19T09:44:54.202Z,99755.35
2023-02-19T09:47:40.488Z,99758.08
2023-02-19T09:50:34.467Z,99757.11
2023-02-19T09:53:27.328Z,99763.64
2023-02-19T09:56:14.016Z,99766.27
2023-02-19T09:59:02.077Z,99763.40
2023-02-19T10:01:53.455Z,99763.41
2023-02-19T10:04:42.365Z,99759.14
2023-02-19T10:07:39.401Z,99758.92
2023-02-19T10:10:33.089Z,99755.55
2023-02-19T10:13:29.658Z,99755.10
2023-02-19T10:16:22.504Z,99757.02
2023-02-19T10:19:16.374Z,99761.33
2023-02-19T10:22:03.726Z,99766.56
2023-02-19T10:24:54.046Z,99770.17
2023-02-19T10:27:41.101Z,99768.68
2023-02-19T10:30:31.713Z,99775.14
2023-02-19T10:33:19.394Z,99772.54
2023-02-19T10:36:07.862Z,99769.53
2023-02-19T10:38:55.097Z,99769.77
2023-02-19T10:41:44.105Z,99770.95
2023-02-19T10:44:45.492Z,99771.47
2023-02-19T10:47:33.029Z,99782.92
2023-02-19T10:50:39.293Z,99778.09
2023-02-19T10:53:44.086Z,99781.80
2023-02-19T10:56:31.507Z,99788.63
2023-02-19T10:59:18.004Z,99791.65
2023-02-19T11:02:17.330Z,99795.82
2023-02-19T11:05:09.738Z,99790.05
2023-02-19T11:07:57.219Z,99796.55
2023-02-19T11:10:48.927Z,99792.11
2023-02-19T11:13:38.063Z,99787.61
2023-02-19T11:16:38.446Z,99790.27
2023-02-19T11:19:31.562Z,99793.87
2023-02-19T11:22:38.050Z,99792.39
2023-02-19T11:25:25.847Z,99794.77
2023-02-19T11:28:35.963Z,99791.95
2023-02-19T11:31:31.988Z,99789.36
2023-02-19T11:34:21.168Z,99789.21
2023-02-19T11:38:03.794Z,99796.89
2023-02-19T11:41:47.312Z,99790.66
2023-02-19T11:45:03.847Z,99791.69
2023-02-19T11:48:15.070Z,99791.20
2023-02-19T11:51:28.550Z,99793.27
2023-02-19T11:54:25.442Z,99788.79
2023-02-19T11:57:48.560Z,99785.83
2023-02-19T12:00:48.961Z,99795.86
2023-02-19T12:04:25.024Z,99805.59
2023-02-19T12:07:35.294Z,99808.77
2023-02-19T12:10:43.102Z,99807.61
2023-02-19T12:13:38.469Z,99822.52
2023-02-19T12:16:41.441Z,99827.80
2023-02-19T12:19:42.272Z,99826.71
2023-02-19T12:22:44.283Z,99831.91
2023-02-19T12:25:55.501Z,99836.08
2023-02-19T12:29:00.930Z,99832.20
2023-02-19T12:31:54.280Z,99825.86
2023-02-19T12:35:19.731Z,99834.21
2023-02-19T12:38:25.103Z,99832.18
2023-02-19T12:41:30.513Z,99834.14
2023-02-19T12:44:24.110Z,99846.48
2023-02-19T12:47:29.875Z,99853.09
2023-02-19T12:50:28.022Z,99855.67
2023-02-19T12:53:15.155Z,99858.70
2023-02-19T12:56:09.184Z,99857.15
2023-02-19T12:59:17.923Z,99855.81
2023-02-19T13:02:10.884Z,99856.47
2023-02-19T13:05:23.709Z,99856.85
2023-02-19T13:09:05.730Z,99861.19
2023-02-19T13:12:16.733Z,99866.45
2023-02-19T13:15:17.964Z,99866.52
2023-02-19T13:18:12.985Z,99867.45
2023-02-19T13:21:38.670Z,99869.84
2023-02-19T13:24:44.915Z,99868.29
2023-02-19T13:28:10.738Z,99872.67
2023-02-19T13:31:25.664Z,99880.58
2023-02-19T13:34:33.859Z,99878.66
2023-02-19T13:37:21.791Z,99879.92
2023-02-19T13:40:33.448Z,99883.05
2023-02-19T13:43:37.059Z,99883.17
2023-02-19T13:46:25.665Z,99882.70
2023-02-19T13:49:31.648Z,99887.17
2023-02-19T13:52:30.515Z,99891.41
2023-02-19T13:55:52.056Z,99896.36
2023-02-19T13:58:52.814Z,99902.80
2023-02-19T14:01:51.521Z,99906.29
2023-02-19T14:04:41.321Z,99913.55
2023-02-19T14:07:27.898Z,99913.84
2023-02-19T14:10:46.076Z,99909.05
2023-02-19T14:13:51.541Z,99913.30
2023-02-19T14:16:38.059Z,99920.92
2023-02-19T14:19:42.990Z,99925.48
2023-02-19T14:22:45.005Z,99932.05
2023-02-19T14:25:45.567Z,99937.52
2023-02-19T14:28:45.901Z,99936.70
2023-02-19T14:31:36.556Z,99936.27
2023-02-19T14:34:27.040Z,99935.16
2023-02-19T14:37:19.789Z,99935.53
2023-02-19T14:40:06.344Z,99937.23
2023-02-19T14:42:57.266Z,99934.17
2023-02-19T14:45:54.462Z,99938.38
2023-02-19T14:48:46.782Z,99940.27
2023-02-19T14:51:38.095Z,99946.20
2023-02-19T14:54:38.530Z,99951.05
2023-02-19T14:57:29.687Z,99958.11
2023-02-19T15:00:28.958Z,99961.54
2023-02-19T15:03:35.895Z,99959.41
2023-02-19T15:06:24.430Z,99966.39
2023-02-19T15:09:16.867Z,99969.73
2023-02-19T15:12:04.040Z,99977.11
2023-02-19T15:14:54.865Z,99976.45
2023-02-19T15:17:41.813Z,99983.33
2023-02-19T15:20:32.802Z,99985.77
2023-02-19T15:23:25.284Z,99991.79
2023-02-19T15:26:21.263Z,100000.19
2023-02-19T15:29:16.969Z,100006.21
2023-02-19T15:32:21.855Z,100007.39
2023-02-19T15:35:19.923Z,100011.45
2023-02-19T15:38:12.457Z,100010.80
2023-02-19T15:40:59.303Z,100017.55
2023-02-19T15:44:01.642Z,100026.35
2023-02-19T15:46:48.730Z,100031.14
2023-02-19T15:49:49.992Z,100025.89
2023-02-19T15:52:45.854Z,100026.61
2023-02-19T15:56:00.428Z,100029.20
2023-02-19T15:59:12.858Z,100034.77
2023-02-19T16:02:00.976Z,100039.70
2023-02-19T16:04:47.327Z,100038.33
2023-02-19T16:07:34.101Z,100040.80
2023-02-19T16:10:24.589Z,100048.75
2023-02-19T16:13:12.061Z,100057.77
2023-02-19T16:16:16.056Z,100060.92
2023-02-19T16:19:03.013Z,100063.39
2023-02-19T16:21:49.663Z,100063.79
2023-02-19T16:24:45.084Z,100073.42
2023-02-19T16:27:38.505Z,100080.39
2023-02-19T16:30:31.593Z,100095.23
2023-02-19T16:33:36.661Z,100098.62
2023-02-19T16:36:23.171Z,100099.27
2023-02-19T16:39:09.792Z,100100.20
2023-02-19T16:41:59.482Z,100105.91
2023-02-19T16:44:46.853Z,100112.04
2023-02-19T16:47:40.527Z,100117.83
2023-02-19T16:50:29.192Z,100119.42
2023-02-19T16:53:25.277Z,100122.31
2023-02-19T16:56:18.634Z,100120.04
2023-02-19T16:59:05.110Z,100120.54
2023-02-19T17:01:51.861Z,100120.08
2023-02-19T17:04:38.200Z,100125.05
2023-02-19T17:07:26.530Z,100129.19
2023-02-19T17:10:17.316Z,100127.55
2023-02-19T17:13:05.019Z,100130.21
2023-02-19T17:15:51.498Z,100129.42
2023-02-19T17:18:38.024Z,100137.75
2023-02-19T17:21:26.882Z,100139.92
2023-02-19T17:24:14.055Z,100141.70
2023-02-19T17:27:00.425Z,100142.77
2023-02-19T17:29:46.834Z,100143.61
2023-02-19T17:32:33.575Z,100147.89
2023-02-19T17:35:20.171Z,100149.89
2023-02-19T17:38:09.684Z,100154.19
2023-02-19T17:40:56.368Z,100160.25
2023-02-19T17:43:42.910Z,100165.66
2023-02-19T17:46:29.597Z,100171.70
2023-02-19T17:49:16.409Z,100171.02
2023-02-19T17:52:05.520Z,100180.11
2023-02-19T17:54:52.043Z,100182.77
2023-02-19T17:57:38.675Z,100189.42
2023-02-19T18:00:28.297Z,100195.70
2023-02-19T18:03:14.509Z,100192.04
2023-02-19T18:06:00.919Z,100202.38
2023-02-19T18:08:52.703Z,100208.73
2023-02-19T18:11:39.413Z,100216.41
2023-02-19T18:14:45.819Z,100221.91
2023-02-19T18:17:32.488Z,100225.21
2023-02-19T18:20:28.164Z,100233.21
2023-02-19T18:23:14.674Z,100237.49
2023-02-19T18:26:01.577Z,100237.22
2023-02-19T18:28:48.257Z,100240.09
2023-02-19T18:31:37.459Z,100237.91
2023-02-19T18:34:23.733Z,100243.20
2023-02-19T18:37:10.473Z,100239.32
2023-02-19T18:39:58.008Z,100239.45
2023-02-19T18:42:44.457Z,100245.30
2023-02-19T18:45:35.247Z,100241.29
2023-02-19T18:48:21.499Z,100239.23
2023-02-19T18:51:11.628Z,100240.76
2023-02-19T18:54:01.731Z,100242.56
2023-02-19T18:56:48.230Z,100249.05
2023-02-19T18:59:35.844Z,100244.25
2023-02-19T19:02:22.436Z,100252.66
2023-02-19T19:05:09.206Z,100261.02
2023-02-19T19:07:57.613Z,100268.40
2023-02-19T19:10:44.285Z,100275.09
2023-02-19T19:13:30.970Z,100278.30
2023-02-19T19:16:18.666Z,100279.66
2023-02-19T19:19:05.163Z,100286.70
2023-02-19T19:21:53.486Z,100291.02
2023-02-19T19:24:39.840Z,100288.60
2023-02-19T19:27:25.996Z,100289.58
2023-02-19T19:30:13.055Z,100290.77
2023-02-19T19:33:01.594Z,100292.81
2023-02-19T19:35:48.238Z,100298.86
2023-02-19T19:38:34.925Z,100303.73
2023-02-19T19:41:21.593Z,100308.60
2023-02-19T19:44:09.446Z,100307.64
2023-02-19T19:46:56.472Z,100315.63
2023-02-19T19:49:46.107Z,100316.61
2023-02-19T19:52:32.591Z,100318.80
2023-02-19T19:55:21.665Z,100326.16
2023-02-19T19:58:08.263Z,100323.45
2023-02-19T20:00:54.967Z,100327.95
2023-02-19T20:03:41.456Z,100324.88
2023-02-19T20:06:30.900Z,100326.52
2023-02-19T20:09:18.052Z,100326.78
2023-02-19T20:12:04.952Z,100331.89
2023-02-19T20:14:51.419Z,100331.63
2023-02-19T20:17:38.514Z,100320.71
2023-02-19T20:20:24.946Z,100326.38
2023-02-19T20:23:11.594Z,100327.31
2023-02-19T20:25:58.188Z,100328.94
2023-02-19T20:28:47.648Z,100327.50
2023-02-19T20:31:34.403Z,100331.17
2023-02-19T20:34:23.573Z,100337.60
2023-02-19T20:37:10.595Z,100342.89
2023-02-19T20:39:56.633Z,100351.52
2023-02-19T20:42:43.415Z,100355.02
2023-02-19T20:45:30.931Z,100366.54
2023-02-19T20:48:18.011Z,100363.20
2023-02-19T20:51:05.435Z,100365.65
2023-02-19T21:00:55.162Z,100382.00
2023-02-19T21:03:40.298Z,100389.30
2023-02-19T21:06:25.369Z,100389.22
2023-02-19T21:09:10.738Z,100393.87
2023-02-19T21:11:56.114Z,100397.40
2023-02-19T21:14:41.140Z,100387.59
2023-02-19T21:17:26.272Z,100394.16
2023-02-19T21:20:12.170Z,100405.42
2023-02-19T21:22:57.442Z,100407.65
2023-02-19T21:25:42.684Z,100408.09
2023-02-19T21:28:27.848Z,100395.88
2023-02-19T21:31:13.113Z,100395.05
2023-02-19T21:33:58.514Z,100391.11
2023-02-19T21:36:44.135Z,100390.74
2023-02-19T21:39:30.575Z,100397.08
2023-02-19T21:42:15.440Z,100400.63
2023-02-19T21:45:00.392Z,100403.95
2023-02-19T21:47:45.537Z,100402.23
2023-02-19T21:50:30.383Z,100402.61
2023-02-19T21:53:15.801Z,100406.73
2023-02-19T21:56:00.807Z,100415.83
2023-02-19T21:58:46.122Z,100413.06
2023-02-19T22:01:39.188Z,100416.13
2023-02-19T22:04:24.445Z,100417.42
2023-02-19T22:07:09.724Z,100416.05
2023-02-19T22:09:54.925Z,100423.65
2023-02-19T22:12:39.863Z,100421.02
2023-02-19T22:15:24.893Z,100423.33
2023-02-19T22:18:09.809Z,100430.21
2023-02-19T22:20:55.033Z,100433.19
2023-02-19T22:23:43.709Z,100439.52
2023-02-19T22:26:31.791Z,100445.71
2023-02-19T22:29:17.067Z,100442.21
2023-02-19T22:32:02.563Z,100444.27
2023-02-19T22:34:47.690Z,100445.59
2023-02-19T22:37:32.903Z,100441.13
2023-02-19T22:40:20.318Z,100422.84
2023-02-19T22:43:05.588Z,100420.61
2023-02-19T22:45:50.824Z,100427.83
2023-02-19T22:48:36.082Z,100428.63
2023-02-19T22:51:23.448Z,100428.79
2023-02-19T22:54:09.074Z,100425.79
2023-02-19T22:56:55.279Z,100421.19
2023-02-19T22:59:40.505Z,100426.12
2023-02-19T23:02:25.677Z,100428.80
2023-02-19T23:05:10.919Z,100425.10
2023-02-19T23:07:55.836Z,100422.95
2023-02-19T23:10:40.988Z,100409.13
2023-02-19T23:13:26.177Z,100408.25
2023-02-19T23:16:12.097Z,100410.83
2023-02-19T23:18:57.242Z,100423.02
2023-02-19T23:21:44.034Z,100422.65
2023-02-19T23:24:29.353Z,100420.84
2023-02-19T23:27:14.507Z,100428.37
2023-02-19T23:29:59.701Z,100435.37
2023-02-19T23:32:44.809Z,100436.05
2023-02-19T23:35:31.224Z,100435.91
2023-02-19T23:38:16.597Z,100441.49
2023-02-19T23:41:02.168Z,100443.29
2023-02-19T23:43:49.714Z,100446.17
2023-02-19T23:46:34.951Z,100444.16
2023-02-19T23:49:20.619Z,100440.48
2023-02-19T23:52:05.816Z,100429.30
2023-02-19T23:54:50.941Z,100428.98
2023-02-19T23:57:36.064Z,100415.09
